sensor_id;sensor_type;location;lat;lon;timestamp;P1;durP1;ratioP1;P2;durP2;ratioP2
18685;SDS011;9473;52.342;13.110;2023-03-01T00:01:13;17.50;;;7.28;;
18685;SDS011;9473;52.342;13.110;2023-03-01T00:03:40;19.75;;;7.28;;
18685;SDS011;9473;52.342;13.110;2023-03-01T00:06:07;14.02;;;6.57;;
18685;SDS011;9473;52.342;13.110;2023-03-01T00:08:34;15.70;;;6.65;;
18685;SDS011;9473;52.342;13.110;2023-03-01T00:11:03;19.38;;;8.25;;
18685;SDS011;9473;52.342;13.110;2023-03-01T00:13:30;21.27;;;8.30;;
18685;SDS011;9473;52.342;13.110;2023-03-01T00:15:57;22.80;;;10.07;;
18685;SDS011;9473;52.342;13.110;2023-03-01T00:18:25;24.73;;;9.32;;
18685;SDS011;9473;52.342;13.110;2023-03-01T00:20:53;18.88;;;7.90;;
18685;SDS011;9473;52.342;13.110;2023-03-01T00:23:20;17.30;;;6.57;;
18685;SDS011;9473;52.342;13.110;2023-03-01T00:25:47;17.48;;;6.07;;
18685;SDS011;9473;52.342;13.110;2023-03-01T00:28:15;13.88;;;5.72;;
18685;SDS011;9473;52.342;13.110;2023-03-01T00:30:42;12.65;;;5.43;;
18685;SDS011;9473;52.342;13.110;2023-03-01T00:33:09;11.10;;;4.85;;
18685;SDS011;9473;52.342;13.110;2023-03-01T00:35:37;13.60;;;5.00;;
18685;SDS011;9473;52.342;13.110;2023-03-01T00:38:04;10.10;;;4.50;;
18685;SDS011;9473;52.342;13.110;2023-03-01T00:40:32;11.82;;;4.68;;
18685;SDS011;9473;52.342;13.110;2023-03-01T00:42:59;12.02;;;4.88;;
18685;SDS011;9473;52.342;13.110;2023-03-01T00:45:26;15.48;;;5.45;;
18685;SDS011;9473;52.342;13.110;2023-03-01T00:47:54;13.65;;;5.43;;
18685;SDS011;9473;52.342;13.110;2023-03-01T00:50:21;14.82;;;5.20;;
18685;SDS011;9473;52.342;13.110;2023-03-01T00:52:50;14.00;;;6.13;;
18685;SDS011;9473;52.342;13.110;2023-03-01T00:55:18;13.75;;;5.93;;
18685;SDS011;9473;52.342;13.110;2023-03-01T00:57:45;16.13;;;6.40;;
18685;SDS011;9473;52.342;13.110;2023-03-01T01:00:12;13.50;;;5.70;;
18685;SDS011;9473;52.342;13.110;2023-03-01T01:02:39;17.50;;;5.70;;
18685;SDS011;9473;52.342;13.110;2023-03-01T01:05:06;11.88;;;5.78;;
18685;SDS011;9473;52.342;13.110;2023-03-01T01:07:34;13.13;;;5.50;;
18685;SDS011;9473;52.342;13.110;2023-03-01T01:10:02;11.00;;;5.18;;
18685;SDS011;9473;52.342;13.110;2023-03-01T01:12:29;13.77;;;5.90;;
18685;SDS011;9473;52.342;13.110;2023-03-01T01:14:56;12.18;;;5.78;;
18685;SDS011;9473;52.342;13.110;2023-03-01T01:17:23;14.05;;;5.20;;
18685;SDS011;9473;52.342;13.110;2023-03-01T01:19:50;11.90;;;4.68;;
18685;SDS011;9473;52.342;13.110;2023-03-01T01:22:16;12.30;;;4.93;;
18685;SDS011;9473;52.342;13.110;2023-03-01T01:24:43;11.90;;;4.97;;
18685;SDS011;9473;52.342;13.110;2023-03-01T01:27:12;10.90;;;5.00;;
18685;SDS011;9473;52.342;13.110;2023-03-01T01:29:38;9.73;;;5.13;;
18685;SDS011;9473;52.342;13.110;2023-03-01T01:32:06;10.15;;;4.75;;
18685;SDS011;9473;52.342;13.110;2023-03-01T01:34:33;13.00;;;4.20;;
18685;SDS011;9473;52.342;13.110;2023-03-01T01:37:00;8.68;;;4.10;;
18685;SDS011;9473;52.342;13.110;2023-03-01T01:39:27;11.93;;;4.78;;
18685;SDS011;9473;52.342;13.110;2023-03-01T01:41:54;11.45;;;4.50;;
18685;SDS011;9473;52.342;13.110;2023-03-01T01:44:23;13.05;;;5.13;;
18685;SDS011;9473;52.342;13.110;2023-03-01T01:46:52;13.25;;;5.00;;
18685;SDS011;9473;52.342;13.110;2023-03-01T01:49:22;11.98;;;5.20;;
18685;SDS011;9473;52.342;13.110;2023-03-01T01:51:51;11.95;;;5.05;;
18685;SDS011;9473;52.342;13.110;2023-03-01T01:54:21;15.52;;;5.70;;
18685;SDS011;9473;52.342;13.110;2023-03-01T01:56:51;14.43;;;5.97;;
18685;SDS011;9473;52.342;13.110;2023-03-01T01:59:19;14.55;;;5.82;;
18685;SDS011;9473;52.342;13.110;2023-03-01T02:01:50;12.57;;;5.50;;
18685;SDS011;9473;52.342;13.110;2023-03-01T02:04:17;12.05;;;5.63;;
18685;SDS011;9473;52.342;13.110;2023-03-01T02:06:46;12.38;;;5.13;;
18685;SDS011;9473;52.342;13.110;2023-03-01T02:09:15;13.73;;;5.03;;
18685;SDS011;9473;52.342;13.110;2023-03-01T02:11:45;13.00;;;5.50;;
18685;SDS011;9473;52.342;13.110;2023-03-01T02:14:11;12.45;;;5.22;;
18685;SDS011;9473;52.342;13.110;2023-03-01T02:16:39;12.02;;;4.88;;
18685;SDS011;9473;52.342;13.110;2023-03-01T02:19:07;14.73;;;5.53;;
18685;SDS011;9473;52.342;13.110;2023-03-01T02:21:37;11.75;;;4.63;;
18685;SDS011;9473;52.342;13.110;2023-03-01T02:24:06;14.02;;;5.35;;
18685;SDS011;9473;52.342;13.110;2023-03-01T02:26:36;9.88;;;5.10;;
18685;SDS011;9473;52.342;13.110;2023-03-01T02:29:07;14.50;;;5.60;;
18685;SDS011;9473;52.342;13.110;2023-03-01T02:31:34;11.43;;;4.97;;
18685;SDS011;9473;52.342;13.110;2023-03-01T02:34:08;16.50;;;5.50;;
18685;SDS011;9473;52.342;13.110;2023-03-01T02:36:36;12.15;;;4.93;;
18685;SDS011;9473;52.342;13.110;2023-03-01T02:39:04;14.20;;;4.68;;
18685;SDS011;9473;52.342;13.110;2023-03-01T02:41:33;11.32;;;4.85;;
18685;SDS011;9473;52.342;13.110;2023-03-01T02:44:01;11.57;;;5.28;;
18685;SDS011;9473;52.342;13.110;2023-03-01T02:46:29;13.48;;;5.65;;
18685;SDS011;9473;52.342;13.110;2023-03-01T02:48:57;12.70;;;5.28;;
18685;SDS011;9473;52.342;13.110;2023-03-01T02:51:31;10.50;;;4.90;;
18685;SDS011;9473;52.342;13.110;2023-03-01T02:54:05;11.27;;;5.10;;
18685;SDS011;9473;52.342;13.110;2023-03-01T02:56:34;11.20;;;5.32;;
18685;SDS011;9473;52.342;13.110;2023-03-01T02:59:01;17.10;;;5.30;;
18685;SDS011;9473;52.342;13.110;2023-03-01T03:01:29;15.15;;;5.68;;
18685;SDS011;9473;52.342;13.110;2023-03-01T03:04:01;11.40;;;5.75;;
18685;SDS011;9473;52.342;13.110;2023-03-01T03:06:28;11.43;;;5.25;;
18685;SDS011;9473;52.342;13.110;2023-03-01T03:08:55;13.93;;;5.38;;
18685;SDS011;9473;52.342;13.110;2023-03-01T03:11:22;10.73;;;5.35;;
18685;SDS011;9473;52.342;13.110;2023-03-01T03:13:49;10.98;;;5.18;;
18685;SDS011;9473;52.342;13.110;2023-03-01T03:16:16;12.57;;;4.70;;
18685;SDS011;9473;52.342;13.110;2023-03-01T03:18:45;12.27;;;5.38;;
18685;SDS011;9473;52.342;13.110;2023-03-01T03:21:12;13.48;;;5.05;;
18685;SDS011;9473;52.342;13.110;2023-03-01T03:23:41;13.52;;;5.20;;
18685;SDS011;9473;52.342;13.110;2023-03-01T03:26:07;13.50;;;5.18;;
18685;SDS011;9473;52.342;13.110;2023-03-01T03:28:39;10.77;;;5.40;;
18685;SDS011;9473;52.342;13.110;2023-03-01T03:31:07;10.80;;;4.68;;
18685;SDS011;9473;52.342;13.110;2023-03-01T03:33:34;11.48;;;4.50;;
18685;SDS011;9473;52.342;13.110;2023-03-01T03:36:03;13.55;;;5.05;;
18685;SDS011;9473;52.342;13.110;2023-03-01T03:38:30;10.55;;;4.85;;
18685;SDS011;9473;52.342;13.110;2023-03-01T03:41:01;12.32;;;5.60;;
18685;SDS011;9473;52.342;13.110;2023-03-01T03:43:29;13.02;;;5.35;;
18685;SDS011;9473;52.342;13.110;2023-03-01T03:45:56;11.40;;;5.20;;
18685;SDS011;9473;52.342;13.110;2023-03-01T03:48:23;10.75;;;4.85;;
18685;SDS011;9473;52.342;13.110;2023-03-01T03:50:51;12.90;;;5.07;;
18685;SDS011;9473;52.342;13.110;2023-03-01T03:53:20;8.68;;;4.40;;
18685;SDS011;9473;52.342;13.110;2023-03-01T03:55:47;11.05;;;4.90;;
18685;SDS011;9473;52.342;13.110;2023-03-01T03:58:16;12.32;;;5.30;;
18685;SDS011;9473;52.342;13.110;2023-03-01T04:00:44;10.27;;;4.72;;
18685;SDS011;9473;52.342;13.110;2023-03-01T04:03:12;9.50;;;4.47;;
18685;SDS011;9473;52.342;13.110;2023-03-01T04:05:39;11.98;;;4.78;;
18685;SDS011;9473;52.342;13.110;2023-03-01T04:08:07;9.25;;;5.07;;
18685;SDS011;9473;52.342;13.110;2023-03-01T04:10:36;12.77;;;5.07;;
18685;SDS011;9473;52.342;13.110;2023-03-01T04:13:03;12.38;;;4.68;;
18685;SDS011;9473;52.342;13.110;2023-03-01T04:15:31;11.05;;;5.20;;
18685;SDS011;9473;52.342;13.110;2023-03-01T04:17:58;13.05;;;5.10;;
18685;SDS011;9473;52.342;13.110;2023-03-01T04:20:26;11.00;;;4.82;;
18685;SDS011;9473;52.342;13.110;2023-03-01T04:22:56;13.93;;;5.22;;
18685;SDS011;9473;52.342;13.110;2023-03-01T04:25:23;10.20;;;5.03;;
18685;SDS011;9473;52.342;13.110;2023-03-01T04:27:52;13.93;;;5.18;;
18685;SDS011;9473;52.342;13.110;2023-03-01T04:30:19;11.75;;;4.80;;
18685;SDS011;9473;52.342;13.110;2023-03-01T04:32:50;25.40;;;8.07;;
18685;SDS011;9473;52.342;13.110;2023-03-01T04:35:17;23.13;;;6.65;;
18685;SDS011;9473;52.342;13.110;2023-03-01T04:37:44;15.05;;;5.28;;
18685;SDS011;9473;52.342;13.110;2023-03-01T04:40:11;14.75;;;5.38;;
18685;SDS011;9473;52.342;13.110;2023-03-01T04:42:41;16.77;;;5.72;;
18685;SDS011;9473;52.342;13.110;2023-03-01T04:45:09;13.05;;;5.97;;
18685;SDS011;9473;52.342;13.110;2023-03-01T04:47:39;18.08;;;6.03;;
18685;SDS011;9473;52.342;13.110;2023-03-01T04:50:06;15.05;;;6.15;;
18685;SDS011;9473;52.342;13.110;2023-03-01T04:52:33;13.40;;;5.65;;
18685;SDS011;9473;52.342;13.110;2023-03-01T04:55:00;18.23;;;6.18;;
18685;SDS011;9473;52.342;13.110;2023-03-01T04:57:28;20.38;;;6.10;;
18685;SDS011;9473;52.342;13.110;2023-03-01T04:59:55;17.35;;;6.53;;
18685;SDS011;9473;52.342;13.110;2023-03-01T05:02:23;11.20;;;5.78;;
18685;SDS011;9473;52.342;13.110;2023-03-01T05:04:50;16.40;;;5.55;;
18685;SDS011;9473;52.342;13.110;2023-03-01T05:07:17;12.85;;;5.78;;
18685;SDS011;9473;52.342;13.110;2023-03-01T05:09:45;13.13;;;5.65;;
18685;SDS011;9473;52.342;13.110;2023-03-01T05:12:12;11.82;;;5.40;;
18685;SDS011;9473;52.342;13.110;2023-03-01T05:14:39;16.00;;;6.10;;
18685;SDS011;9473;52.342;13.110;2023-03-01T05:17:06;11.93;;;5.55;;
18685;SDS011;9473;52.342;13.110;2023-03-01T05:19:34;12.80;;;5.72;;
18685;SDS011;9473;52.342;13.110;2023-03-01T05:22:01;12.30;;;5.63;;
18685;SDS011;9473;52.342;13.110;2023-03-01T05:24:30;16.23;;;5.43;;
18685;SDS011;9473;52.342;13.110;2023-03-01T05:26:57;12.93;;;5.30;;
18685;SDS011;9473;52.342;13.110;2023-03-01T05:29:25;15.02;;;5.05;;
18685;SDS011;9473;52.342;13.110;2023-03-01T05:31:53;12.50;;;5.85;;
18685;SDS011;9473;52.342;13.110;2023-03-01T05:34:22;17.75;;;6.20;;
18685;SDS011;9473;52.342;13.110;2023-03-01T05:36:51;14.68;;;6.63;;
18685;SDS011;9473;52.342;13.110;2023-03-01T05:39:19;10.98;;;5.50;;
18685;SDS011;9473;52.342;13.110;2023-03-01T05:41:47;16.08;;;6.10;;
18685;SDS011;9473;52.342;13.110;2023-03-01T05:44:14;19.35;;;6.68;;
18685;SDS011;9473;52.342;13.110;2023-03-01T05:46:41;12.52;;;5.82;;
18685;SDS011;9473;52.342;13.110;2023-03-01T05:49:08;14.48;;;6.18;;
18685;SDS011;9473;52.342;13.110;2023-03-01T05:51:35;15.70;;;6.30;;
18685;SDS011;9473;52.342;13.110;2023-03-01T05:54:03;13.48;;;5.68;;
18685;SDS011;9473;52.342;13.110;2023-03-01T05:56:32;12.10;;;5.88;;
18685;SDS011;9473;52.342;13.110;2023-03-01T05:58:59;16.02;;;5.90;;
18685;SDS011;9473;52.342;13.110;2023-03-01T06:01:26;11.95;;;5.45;;
18685;SDS011;9473;52.342;13.110;2023-03-01T06:03:54;14.30;;;6.03;;
18685;SDS011;9473;52.342;13.110;2023-03-01T06:06:21;14.02;;;6.10;;
18685;SDS011;9473;52.342;13.110;2023-03-01T06:08:48;16.27;;;6.68;;
18685;SDS011;9473;52.342;13.110;2023-03-01T06:11:17;11.55;;;6.03;;
18685;SDS011;9473;52.342;13.110;2023-03-01T06:13:44;15.70;;;6.20;;
18685;SDS011;9473;52.342;13.110;2023-03-01T06:16:11;16.15;;;6.28;;
18685;SDS011;9473;52.342;13.110;2023-03-01T06:18:38;13.95;;;5.63;;
18685;SDS011;9473;52.342;13.110;2023-03-01T06:21:05;14.52;;;6.40;;
18685;SDS011;9473;52.342;13.110;2023-03-01T06:23:33;13.18;;;5.75;;
18685;SDS011;9473;52.342;13.110;2023-03-01T06:26:00;14.02;;;5.68;;
18685;SDS011;9473;52.342;13.110;2023-03-01T06:28:32;13.02;;;6.10;;
18685;SDS011;9473;52.342;13.110;2023-03-01T06:30:59;15.10;;;6.00;;
18685;SDS011;9473;52.342;13.110;2023-03-01T06:33:26;10.70;;;5.38;;
18685;SDS011;9473;52.342;13.110;2023-03-01T06:35:54;57.85;;;21.25;;
18685;SDS011;9473;52.342;13.110;2023-03-01T06:38:21;44.15;;;15.93;;
18685;SDS011;9473;52.342;13.110;2023-03-01T06:40:51;27.70;;;10.13;;
18685;SDS011;9473;52.342;13.110;2023-03-01T06:43:18;22.27;;;8.65;;
18685;SDS011;9473;52.342;13.110;2023-03-01T06:45:47;28.10;;;9.63;;
18685;SDS011;9473;52.342;13.110;2023-03-01T06:48:14;21.85;;;8.57;;
18685;SDS011;9473;52.342;13.110;2023-03-01T06:50:41;22.98;;;8.85;;
18685;SDS011;9473;52.342;13.110;2023-03-01T06:53:08;17.92;;;7.95;;
18685;SDS011;9473;52.342;13.110;2023-03-01T06:55:34;17.05;;;7.22;;
18685;SDS011;9473;52.342;13.110;2023-03-01T06:58:02;22.65;;;9.15;;
18685;SDS011;9473;52.342;13.110;2023-03-01T07:00:30;27.02;;;11.30;;
18685;SDS011;9473;52.342;13.110;2023-03-01T07:02:59;24.80;;;10.55;;
18685;SDS011;9473;52.342;13.110;2023-03-01T07:05:27;44.22;;;15.23;;
18685;SDS011;9473;52.342;13.110;2023-03-01T07:07:54;36.25;;;12.98;;
18685;SDS011;9473;52.342;13.110;2023-03-01T07:10:21;44.88;;;17.92;;
18685;SDS011;9473;52.342;13.110;2023-03-01T07:12:48;49.60;;;18.45;;
18685;SDS011;9473;52.342;13.110;2023-03-01T07:15:15;42.08;;;14.35;;
18685;SDS011;9473;52.342;13.110;2023-03-01T07:17:42;35.53;;;12.85;;
18685;SDS011;9473;52.342;13.110;2023-03-01T07:20:11;36.95;;;13.25;;
18685;SDS011;9473;52.342;13.110;2023-03-01T07:22:39;37.25;;;13.77;;
18685;SDS011;9473;52.342;13.110;2023-03-01T07:25:07;34.22;;;13.23;;
18685;SDS011;9473;52.342;13.110;2023-03-01T07:27:34;50.58;;;18.98;;
18685;SDS011;9473;52.342;13.110;2023-03-01T07:30:01;31.15;;;11.68;;
18685;SDS011;9473;52.342;13.110;2023-03-01T07:32:27;46.67;;;17.98;;
18685;SDS011;9473;52.342;13.110;2023-03-01T07:34:54;50.38;;;18.95;;
18685;SDS011;9473;52.342;13.110;2023-03-01T07:37:23;49.65;;;18.30;;
18685;SDS011;9473;52.342;13.110;2023-03-01T07:39:49;50.08;;;16.77;;
18685;SDS011;9473;52.342;13.110;2023-03-01T07:42:16;37.60;;;14.20;;
18685;SDS011;9473;52.342;13.110;2023-03-01T07:44:43;53.17;;;19.55;;
18685;SDS011;9473;52.342;13.110;2023-03-01T07:47:10;56.47;;;20.48;;
18685;SDS011;9473;52.342;13.110;2023-03-01T07:49:37;54.53;;;21.00;;
18685;SDS011;9473;52.342;13.110;2023-03-01T07:52:04;51.40;;;18.75;;
18685;SDS011;9473;52.342;13.110;2023-03-01T07:54:33;48.60;;;18.13;;
18685;SDS011;9473;52.342;13.110;2023-03-01T07:57:00;40.38;;;17.85;;
18685;SDS011;9473;52.342;13.110;2023-03-01T07:59:27;47.15;;;17.88;;
18685;SDS011;9473;52.342;13.110;2023-03-01T08:01:54;39.58;;;17.08;;
18685;SDS011;9473;52.342;13.110;2023-03-01T08:04:21;39.78;;;15.98;;
18685;SDS011;9473;52.342;13.110;2023-03-01T08:06:49;31.98;;;15.25;;
18685;SDS011;9473;52.342;13.110;2023-03-01T08:09:16;26.67;;;12.52;;
18685;SDS011;9473;52.342;13.110;2023-03-01T08:11:44;27.40;;;11.27;;
18685;SDS011;9473;52.342;13.110;2023-03-01T08:14:11;24.80;;;11.00;;
18685;SDS011;9473;52.342;13.110;2023-03-01T08:16:38;20.95;;;10.05;;
18685;SDS011;9473;52.342;13.110;2023-03-01T08:19:05;23.60;;;9.35;;
18685;SDS011;9473;52.342;13.110;2023-03-01T08:21:32;18.73;;;8.65;;
18685;SDS011;9473;52.342;13.110;2023-03-01T08:24:00;20.75;;;8.32;;
18685;SDS011;9473;52.342;13.110;2023-03-01T08:26:27;17.50;;;8.55;;
18685;SDS011;9473;52.342;13.110;2023-03-01T08:28:56;17.52;;;8.27;;
18685;SDS011;9473;52.342;13.110;2023-03-01T08:31:25;18.73;;;8.25;;
18685;SDS011;9473;52.342;13.110;2023-03-01T08:33:53;22.98;;;8.20;;
18685;SDS011;9473;52.342;13.110;2023-03-01T08:36:21;17.33;;;8.52;;
18685;SDS011;9473;52.342;13.110;2023-03-01T08:38:48;23.65;;;8.68;;
18685;SDS011;9473;52.342;13.110;2023-03-01T08:41:15;18.98;;;7.82;;
18685;SDS011;9473;52.342;13.110;2023-03-01T08:43:42;17.70;;;8.18;;
18685;SDS011;9473;52.342;13.110;2023-03-01T08:46:11;17.20;;;7.82;;
18685;SDS011;9473;52.342;13.110;2023-03-01T08:48:38;16.98;;;8.10;;
18685;SDS011;9473;52.342;13.110;2023-03-01T08:51:08;13.80;;;7.53;;
18685;SDS011;9473;52.342;13.110;2023-03-01T08:53:35;14.52;;;7.43;;
18685;SDS011;9473;52.342;13.110;2023-03-01T08:56:02;16.50;;;7.35;;
18685;SDS011;9473;52.342;13.110;2023-03-01T08:58:29;16.98;;;7.50;;
18685;SDS011;9473;52.342;13.110;2023-03-01T09:00:56;17.38;;;7.82;;
18685;SDS011;9473;52.342;13.110;2023-03-01T09:03:24;18.80;;;7.88;;
18685;SDS011;9473;52.342;13.110;2023-03-01T09:05:51;16.27;;;7.85;;
18685;SDS011;9473;52.342;13.110;2023-03-01T09:08:18;14.55;;;7.15;;
18685;SDS011;9473;52.342;13.110;2023-03-01T09:10:45;16.48;;;7.22;;
18685;SDS011;9473;52.342;13.110;2023-03-01T09:13:12;15.48;;;7.28;;
18685;SDS011;9473;52.342;13.110;2023-03-01T09:15:39;14.15;;;7.18;;
18685;SDS011;9473;52.342;13.110;2023-03-01T09:18:06;17.88;;;6.80;;
18685;SDS011;9473;52.342;13.110;2023-03-01T09:20:34;13.98;;;6.00;;
18685;SDS011;9473;52.342;13.110;2023-03-01T09:23:01;14.85;;;6.40;;
18685;SDS011;9473;52.342;13.110;2023-03-01T09:25:28;18.60;;;8.52;;
18685;SDS011;9473;52.342;13.110;2023-03-01T09:27:55;14.50;;;7.47;;
18685;SDS011;9473;52.342;13.110;2023-03-01T09:30:22;13.05;;;6.45;;
18685;SDS011;9473;52.342;13.110;2023-03-01T09:32:49;14.75;;;6.88;;
18685;SDS011;9473;52.342;13.110;2023-03-01T09:35:16;11.85;;;5.93;;
18685;SDS011;9473;52.342;13.110;2023-03-01T09:37:46;11.75;;;5.82;;
18685;SDS011;9473;52.342;13.110;2023-03-01T09:40:15;8.23;;;3.92;;
18685;SDS011;9473;52.342;13.110;2023-03-01T09:42:46;9.23;;;3.83;;
18685;SDS011;9473;52.342;13.110;2023-03-01T09:45:18;8.98;;;3.63;;
18685;SDS011;9473;52.342;13.110;2023-03-01T09:47:47;11.95;;;4.10;;
18685;SDS011;9473;52.342;13.110;2023-03-01T09:50:15;7.82;;;4.03;;
18685;SDS011;9473;52.342;13.110;2023-03-01T09:52:43;7.30;;;3.20;;
18685;SDS011;9473;52.342;13.110;2023-03-01T09:55:15;8.68;;;3.70;;
18685;SDS011;9473;52.342;13.110;2023-03-01T09:57:45;8.85;;;3.70;;
18685;SDS011;9473;52.342;13.110;2023-03-01T10:00:16;9.77;;;4.03;;
18685;SDS011;9473;52.342;13.110;2023-03-01T10:02:45;10.15;;;4.53;;
18685;SDS011;9473;52.342;13.110;2023-03-01T10:05:19;8.98;;;4.47;;
18685;SDS011;9473;52.342;13.110;2023-03-01T10:07:51;7.43;;;3.97;;
18685;SDS011;9473;52.342;13.110;2023-03-01T10:10:26;8.80;;;4.40;;
18685;SDS011;9473;52.342;13.110;2023-03-01T10:12:54;11.57;;;4.00;;
18685;SDS011;9473;52.342;13.110;2023-03-01T10:15:25;8.32;;;3.92;;
18685;SDS011;9473;52.342;13.110;2023-03-01T10:17:57;9.50;;;4.28;;
18685;SDS011;9473;52.342;13.110;2023-03-01T10:20:26;9.00;;;3.83;;
18685;SDS011;9473;52.342;13.110;2023-03-01T10:22:56;8.55;;;3.70;;
18685;SDS011;9473;52.342;13.110;2023-03-01T10:25:29;8.75;;;4.43;;
18685;SDS011;9473;52.342;13.110;2023-03-01T10:28:00;8.38;;;3.78;;
18685;SDS011;9473;52.342;13.110;2023-03-01T10:30:30;6.50;;;3.85;;
18685;SDS011;9473;52.342;13.110;2023-03-01T10:32:59;9.73;;;4.07;;
18685;SDS011;9473;52.342;13.110;2023-03-01T10:35:26;8.18;;;3.65;;
18685;SDS011;9473;52.342;13.110;2023-03-01T10:37:58;10.13;;;4.60;;
18685;SDS011;9473;52.342;13.110;2023-03-01T10:40:25;14.70;;;4.25;;
18685;SDS011;9473;52.342;13.110;2023-03-01T10:42:53;10.80;;;4.25;;
18685;SDS011;9473;52.342;13.110;2023-03-01T10:45:27;11.13;;;4.35;;
18685;SDS011;9473;52.342;13.110;2023-03-01T10:48:03;7.93;;;3.47;;
18685;SDS011;9473;52.342;13.110;2023-03-01T10:50:30;9.27;;;4.00;;
18685;SDS011;9473;52.342;13.110;2023-03-01T10:52:59;9.95;;;3.80;;
18685;SDS011;9473;52.342;13.110;2023-03-01T10:55:27;8.98;;;3.38;;
18685;SDS011;9473;52.342;13.110;2023-03-01T10:58:07;8.98;;;3.88;;
18685;SDS011;9473;52.342;13.110;2023-03-01T11:00:44;6.57;;;3.13;;
18685;SDS011;9473;52.342;13.110;2023-03-01T11:03:12;9.30;;;3.40;;
18685;SDS011;9473;52.342;13.110;2023-03-01T11:05:50;7.38;;;3.20;;
18685;SDS011;9473;52.342;13.110;2023-03-01T11:08:28;7.30;;;3.45;;
18685;SDS011;9473;52.342;13.110;2023-03-01T11:11:03;6.25;;;3.00;;
18685;SDS011;9473;52.342;13.110;2023-03-01T11:13:32;9.75;;;3.03;;
18685;SDS011;9473;52.342;13.110;2023-03-01T11:16:00;8.80;;;3.05;;
18685;SDS011;9473;52.342;13.110;2023-03-01T11:18:28;8.80;;;2.90;;
18685;SDS011;9473;52.342;13.110;2023-03-01T11:20:56;6.13;;;2.40;;
18685;SDS011;9473;52.342;13.110;2023-03-01T11:23:24;8.10;;;2.67;;
18685;SDS011;9473;52.342;13.110;2023-03-01T11:25:53;6.28;;;3.00;;
18685;SDS011;9473;52.342;13.110;2023-03-01T11:28:21;6.68;;;3.13;;
18685;SDS011;9473;52.342;13.110;2023-03-01T11:30:51;6.90;;;3.08;;
18685;SDS011;9473;52.342;13.110;2023-03-01T11:33:23;6.25;;;2.75;;
18685;SDS011;9473;52.342;13.110;2023-03-01T11:35:55;8.10;;;3.15;;
18685;SDS011;9473;52.342;13.110;2023-03-01T11:38:25;6.57;;;2.55;;
18685;SDS011;9473;52.342;13.110;2023-03-01T11:40:54;7.07;;;2.25;;
18685;SDS011;9473;52.342;13.110;2023-03-01T11:43:26;7.05;;;2.90;;
18685;SDS011;9473;52.342;13.110;2023-03-01T11:46:02;9.55;;;2.85;;
18685;SDS011;9473;52.342;13.110;2023-03-01T11:48:39;5.35;;;2.60;;
18685;SDS011;9473;52.342;13.110;2023-03-01T11:51:09;6.60;;;2.80;;
18685;SDS011;9473;52.342;13.110;2023-03-01T11:53:46;4.55;;;2.63;;
18685;SDS011;9473;52.342;13.110;2023-03-01T11:56:16;7.18;;;2.40;;
18685;SDS011;9473;52.342;13.110;2023-03-01T11:59:01;5.13;;;2.40;;
18685;SDS011;9473;52.342;13.110;2023-03-01T12:01:36;6.32;;;2.80;;
18685;SDS011;9473;52.342;13.110;2023-03-01T12:04:11;5.10;;;2.78;;
18685;SDS011;9473;52.342;13.110;2023-03-01T12:06:45;7.05;;;3.08;;
18685;SDS011;9473;52.342;13.110;2023-03-01T12:09:25;6.70;;;2.80;;
18685;SDS011;9473;52.342;13.110;2023-03-01T12:12:03;5.10;;;2.72;;
18685;SDS011;9473;52.342;13.110;2023-03-01T12:14:39;5.28;;;2.63;;
18685;SDS011;9473;52.342;13.110;2023-03-01T12:17:23;6.75;;;2.47;;
18685;SDS011;9473;52.342;13.110;2023-03-01T12:19:56;7.40;;;2.60;;
18685;SDS011;9473;52.342;13.110;2023-03-01T12:22:29;5.05;;;2.67;;
18685;SDS011;9473;52.342;13.110;2023-03-01T12:24:59;5.80;;;3.00;;
18685;SDS011;9473;52.342;13.110;2023-03-01T12:27:38;8.18;;;2.78;;
18685;SDS011;9473;52.342;13.110;2023-03-01T12:30:13;8.68;;;2.85;;
18685;SDS011;9473;52.342;13.110;2023-03-01T12:32:47;6.43;;;2.90;;
18685;SDS011;9473;52.342;13.110;2023-03-01T12:35:26;5.57;;;3.03;;
18685;SDS011;9473;52.342;13.110;2023-03-01T12:37:54;5.68;;;3.08;;
18685;SDS011;9473;52.342;13.110;2023-03-01T12:40:30;6.10;;;2.70;;
18685;SDS011;9473;52.342;13.110;2023-03-01T12:43:03;6.95;;;3.33;;
18685;SDS011;9473;52.342;13.110;2023-03-01T12:45:38;4.80;;;2.70;;
18685;SDS011;9473;52.342;13.110;2023-03-01T12:48:17;6.55;;;2.67;;
18685;SDS011;9473;52.342;13.110;2023-03-01T12:50:48;7.30;;;2.60;;
18685;SDS011;9473;52.342;13.110;2023-03-01T12:53:20;6.35;;;2.85;;
18685;SDS011;9473;52.342;13.110;2023-03-01T12:55:48;7.45;;;3.05;;
18685;SDS011;9473;52.342;13.110;2023-03-01T12:58:19;7.38;;;3.13;;
18685;SDS011;9473;52.342;13.110;2023-03-01T13:00:51;9.48;;;3.22;;
18685;SDS011;9473;52.342;13.110;2023-03-01T13:03:24;4.57;;;2.45;;
18685;SDS011;9473;52.342;13.110;2023-03-01T13:05:59;7.43;;;3.10;;
18685;SDS011;9473;52.342;13.110;2023-03-01T13:08:29;5.60;;;2.88;;
18685;SDS011;9473;52.342;13.110;2023-03-01T13:11:00;5.47;;;3.00;;
18685;SDS011;9473;52.342;13.110;2023-03-01T13:13:28;7.45;;;3.25;;
18685;SDS011;9473;52.342;13.110;2023-03-01T13:15:56;7.30;;;3.30;;
18685;SDS011;9473;52.342;13.110;2023-03-01T13:18:28;7.90;;;3.22;;
18685;SDS011;9473;52.342;13.110;2023-03-01T13:20:56;8.15;;;3.28;;
18685;SDS011;9473;52.342;13.110;2023-03-01T13:23:25;5.63;;;2.97;;
18685;SDS011;9473;52.342;13.110;2023-03-01T13:26:06;6.45;;;2.78;;
18685;SDS011;9473;52.342;13.110;2023-03-01T13:28:37;6.55;;;3.00;;
18685;SDS011;9473;52.342;13.110;2023-03-01T13:31:06;7.38;;;3.28;;
18685;SDS011;9473;52.342;13.110;2023-03-01T13:33:41;6.05;;;3.10;;
18685;SDS011;9473;52.342;13.110;2023-03-01T13:36:08;8.70;;;3.10;;
18685;SDS011;9473;52.342;13.110;2023-03-01T13:38:41;6.50;;;3.22;;
18685;SDS011;9473;52.342;13.110;2023-03-01T13:41:12;6.15;;;3.33;;
18685;SDS011;9473;52.342;13.110;2023-03-01T13:43:40;6.78;;;2.90;;
18685;SDS011;9473;52.342;13.110;2023-03-01T13:46:08;9.30;;;3.17;;
18685;SDS011;9473;52.342;13.110;2023-03-01T13:48:36;9.65;;;3.15;;
18685;SDS011;9473;52.342;13.110;2023-03-01T13:51:06;5.35;;;2.72;;
18685;SDS011;9473;52.342;13.110;2023-03-01T13:53:35;8.80;;;2.88;;
18685;SDS011;9473;52.342;13.110;2023-03-01T13:56:03;5.15;;;2.63;;
18685;SDS011;9473;52.342;13.110;2023-03-01T13:58:33;7.32;;;3.15;;
18685;SDS011;9473;52.342;13.110;2023-03-01T14:01:20;5.65;;;2.67;;
18685;SDS011;9473;52.342;13.110;2023-03-01T14:03:47;4.78;;;2.60;;
18685;SDS011;9473;52.342;13.110;2023-03-01T14:06:16;5.15;;;2.15;;
18685;SDS011;9473;52.342;13.110;2023-03-01T14:08:44;6.07;;;2.30;;
18685;SDS011;9473;52.342;13.110;2023-03-01T14:11:22;5.22;;;2.42;;
18685;SDS011;9473;52.342;13.110;2023-03-01T14:16:44;9.95;;;2.13;;
18685;SDS011;9473;52.342;13.110;2023-03-01T14:19:15;6.97;;;2.47;;
18685;SDS011;9473;52.342;13.110;2023-03-01T14:21:45;5.63;;;2.30;;
18685;SDS011;9473;52.342;13.110;2023-03-01T14:24:18;5.53;;;2.50;;
18685;SDS011;9473;52.342;13.110;2023-03-01T14:26:47;6.10;;;2.60;;
18685;SDS011;9473;52.342;13.110;2023-03-01T14:29:23;4.97;;;2.38;;
18685;SDS011;9473;52.342;13.110;2023-03-01T14:31:50;5.10;;;2.40;;
18685;SDS011;9473;52.342;13.110;2023-03-01T14:34:18;5.75;;;1.90;;
18685;SDS011;9473;52.342;13.110;2023-03-01T14:36:47;5.38;;;2.17;;
18685;SDS011;9473;52.342;13.110;2023-03-01T14:39:18;5.03;;;2.03;;
18685;SDS011;9473;52.342;13.110;2023-03-01T14:41:46;5.88;;;2.22;;
18685;SDS011;9473;52.342;13.110;2023-03-01T14:44:15;5.80;;;2.28;;
18685;SDS011;9473;52.342;13.110;2023-03-01T14:46:43;3.65;;;1.85;;
18685;SDS011;9473;52.342;13.110;2023-03-01T14:49:12;4.90;;;1.90;;
18685;SDS011;9473;52.342;13.110;2023-03-01T14:51:41;6.03;;;2.25;;